createdAt,value
2018-09-27T00:00:15.442Z,12.90
2018-09-27T00:02:50.853Z,12.80
2018-09-27T00:05:25.135Z,12.80
2018-09-27T00:07:59.558Z,12.70
2018-09-27T00:10:34.613Z,12.70
2018-09-27T00:13:09.638Z,12.70
2018-09-27T00:15:44.049Z,12.70
2018-09-27T00:18:18.442Z,12.70
2018-09-27T00:20:52.726Z,12.70
2018-09-27T00:23:27.469Z,12.70
2018-09-27T00:26:03.308Z,12.70
2018-09-27T00:28:38.508Z,12.70
2018-09-27T00:31:13.638Z,12.60
2018-09-27T00:33:48.063Z,12.60
2018-09-27T00:36:30.596Z,12.60
2018-09-27T00:39:09.510Z,12.60
2018-09-27T00:41:43.922Z,12.50
2018-09-27T00:44:26.931Z,12.50
2018-09-27T00:47:01.712Z,12.60
2018-09-27T00:49:37.046Z,12.70
2018-09-27T00:52:15.156Z,12.70
2018-09-27T00:54:49.548Z,12.60
2018-09-27T00:57:24.730Z,12.60
2018-09-27T00:59:59.208Z,12.50
2018-09-27T01:02:34.087Z,12.40
2018-09-27T01:05:09.244Z,12.30
2018-09-27T01:07:43.732Z,12.40
2018-09-27T01:10:18.091Z,12.40
2018-09-27T01:12:53.599Z,12.40
2018-09-27T01:15:27.934Z,12.30
2018-09-27T01:18:02.358Z,12.20
2018-09-27T01:20:36.787Z,12.20
2018-09-27T01:23:11.822Z,12.20
2018-09-27T01:25:47.530Z,12.20
2018-09-27T01:28:22.528Z,12.10
2018-09-27T01:30:57.728Z,12.20
2018-09-27T01:33:32.247Z,12.00
2018-09-27T01:36:06.663Z,12.00
2018-09-27T01:38:41.651Z,12.00
2018-09-27T01:41:16.148Z,11.90
2018-09-27T01:43:51.247Z,11.90
2018-09-27T01:46:26.619Z,11.90
2018-09-27T01:49:01.075Z,12.00
2018-09-27T01:51:35.529Z,11.90
2018-09-27T01:54:09.968Z,11.80
2018-09-27T01:56:45.287Z,11.90
2018-09-27T01:59:20.422Z,11.80
2018-09-27T02:01:54.741Z,11.80
2018-09-27T02:04:29.597Z,11.80
2018-09-27T02:07:04.078Z,11.80
2018-09-27T02:09:39.148Z,11.80
2018-09-27T02:12:14.528Z,11.80
2018-09-27T02:14:48.959Z,11.80
2018-09-27T02:17:24.087Z,11.80
2018-09-27T02:19:58.534Z,11.70
2018-09-27T02:22:32.965Z,11.70
2018-09-27T02:25:08.222Z,11.70
2018-09-27T02:27:42.621Z,11.70
2018-09-27T02:30:17.575Z,11.70
2018-09-27T02:32:52.051Z,11.70
2018-09-27T02:35:27.921Z,11.70
2018-09-27T02:38:03.068Z,11.70
2018-09-27T02:40:37.456Z,11.70
2018-09-27T02:43:12.593Z,11.70
2018-09-27T02:45:48.112Z,11.70
2018-09-27T02:48:22.577Z,11.70
2018-09-27T02:50:56.880Z,11.70
2018-09-27T02:53:31.389Z,11.70
2018-09-27T02:56:06.780Z,11.70
2018-09-27T02:58:41.867Z,11.70
2018-09-27T03:01:16.289Z,11.70
2018-09-27T03:03:51.446Z,11.60
2018-09-27T03:06:25.884Z,11.60
2018-09-27T03:09:00.260Z,11.60
2018-09-27T03:11:34.555Z,11.50
2018-09-27T03:14:09.840Z,11.50
2018-09-27T03:16:44.161Z,11.50
2018-09-27T03:19:19.376Z,11.50
2018-09-27T03:21:55.127Z,11.30
2018-09-27T03:24:29.955Z,11.30
2018-09-27T03:27:05.142Z,11.40
2018-09-27T03:29:48.835Z,11.40
2018-09-27T03:35:03.239Z,11.40
2018-09-27T03:37:39.307Z,11.40
2018-09-27T03:40:13.942Z,11.40
2018-09-27T03:42:52.423Z,11.40
2018-09-27T03:45:28.161Z,11.40
2018-09-27T03:48:02.619Z,11.40
2018-09-27T03:50:37.323Z,11.40
2018-09-27T03:53:11.807Z,11.40
2018-09-27T03:55:46.833Z,11.30
2018-09-27T03:58:22.012Z,11.30
2018-09-27T04:00:56.536Z,11.30
2018-09-27T04:03:31.307Z,11.30
2018-09-27T04:06:05.862Z,11.30
2018-09-27T04:08:40.238Z,11.30
2018-09-27T04:11:14.631Z,11.30
2018-09-27T04:13:49.966Z,11.30
2018-09-27T04:16:24.441Z,11.20
2018-09-27T04:19:00.048Z,11.20
2018-09-27T04:21:34.386Z,11.20
2018-09-27T04:24:09.657Z,11.10
2018-09-27T04:26:44.939Z,11.10
2018-09-27T04:29:20.103Z,11.10
2018-09-27T04:31:55.454Z,11.10
2018-09-27T04:34:29.964Z,11.00
2018-09-27T04:37:04.204Z,11.00
2018-09-27T04:39:39.634Z,11.00
2018-09-27T04:42:14.620Z,11.10
2018-09-27T04:44:50.000Z,11.10
2018-09-27T04:47:24.378Z,11.10
2018-09-27T04:49:58.915Z,11.00
2018-09-27T04:52:34.309Z,11.00
2018-09-27T04:55:09.961Z,11.00
2018-09-27T04:57:45.427Z,11.00
2018-09-27T05:00:20.089Z,11.10
2018-09-27T05:02:56.727Z,11.00
2018-09-27T05:05:31.274Z,11.10
2018-09-27T05:08:05.632Z,11.10
2018-09-27T05:10:40.127Z,11.10
2018-09-27T05:13:15.110Z,11.10
2018-09-27T05:15:49.610Z,11.10
2018-09-27T05:18:24.583Z,11.00
2018-09-27T05:20:59.442Z,11.00
2018-09-27T05:23:33.854Z,11.00
2018-09-27T05:26:08.767Z,11.00
2018-09-27T05:28:44.110Z,11.00
2018-09-27T05:31:19.379Z,11.10
2018-09-27T05:33:53.796Z,11.10
2018-09-27T05:36:34.672Z,11.20
2018-09-27T05:39:10.926Z,11.20
2018-09-27T05:41:45.530Z,11.20
2018-09-27T05:44:20.613Z,11.20
2018-09-27T05:46:55.144Z,11.30
2018-09-27T05:49:29.572Z,11.40
2018-09-27T05:52:04.475Z,11.50
2018-09-27T05:54:39.155Z,11.60
2018-09-27T05:57:17.095Z,11.70
2018-09-27T05:59:51.746Z,11.90
2018-09-27T06:02:26.166Z,12.00
2018-09-27T06:05:01.393Z,12.10
2018-09-27T06:07:35.963Z,12.20
2018-09-27T06:10:11.147Z,12.40
2018-09-27T06:12:46.211Z,12.50
2018-09-27T06:15:21.305Z,12.70
2018-09-27T06:17:55.618Z,12.90
2018-09-27T06:20:30.085Z,13.00
2018-09-27T06:23:05.056Z,13.20
2018-09-27T06:25:40.803Z,13.30
2018-09-27T06:28:16.196Z,13.50
2018-09-27T06:30:51.051Z,13.70
2018-09-27T06:33:25.622Z,13.90
2018-09-27T06:36:01.044Z,14.20
2018-09-27T06:38:36.480Z,14.40
2018-09-27T06:41:11.029Z,14.50
2018-09-27T06:43:46.032Z,14.80
2018-09-27T06:46:20.879Z,15.00
2018-09-27T06:48:55.457Z,15.20
2018-09-27T06:51:29.859Z,15.50
2018-09-27T06:54:04.306Z,15.70
2018-09-27T06:56:39.301Z,15.90
2018-09-27T06:59:14.339Z,16.10
2018-09-27T07:01:48.725Z,16.10
2018-09-27T07:04:23.781Z,16.20
2018-09-27T07:06:58.315Z,16.20
2018-09-27T07:09:32.947Z,16.40
2018-09-27T07:12:08.396Z,16.70
2018-09-27T07:14:42.824Z,17.10
2018-09-27T07:17:17.291Z,17.40
2018-09-27T07:19:51.969Z,17.60
2018-09-27T07:22:26.727Z,17.10
2018-09-27T07:25:03.900Z,16.80
2018-09-27T07:27:38.200Z,17.40
2018-09-27T07:30:13.614Z,17.90
2018-09-27T07:32:49.548Z,18.30
2018-09-27T07:38:04.772Z,17.70
2018-09-27T07:40:39.262Z,18.00
2018-09-27T07:43:14.488Z,18.30
2018-09-27T07:45:50.028Z,18.60
2018-09-27T07:48:24.448Z,18.80
2018-09-27T07:50:59.130Z,18.60
2018-09-27T07:53:33.643Z,18.40
2018-09-27T07:56:09.304Z,18.70
2018-09-27T07:58:44.512Z,19.10
2018-09-27T08:01:19.211Z,19.40
2018-09-27T08:03:54.430Z,19.50
2018-09-27T08:06:29.023Z,19.60
2018-09-27T08:09:03.543Z,19.90
2018-09-27T08:11:39.410Z,20.20
2018-09-27T08:14:21.824Z,20.20
2018-09-27T08:16:56.225Z,20.10
2018-09-27T08:19:30.795Z,20.40
2018-09-27T08:22:06.264Z,20.60
2018-09-27T08:24:41.527Z,20.90
2018-09-27T08:27:16.649Z,21.00
2018-09-27T08:29:59.868Z,20.80
2018-09-27T08:32:34.633Z,20.20
2018-09-27T08:35:09.118Z,19.80
2018-09-27T08:37:49.807Z,20.20
2018-09-27T08:40:24.278Z,20.50
2018-09-27T08:42:59.382Z,20.40
2018-09-27T08:45:34.516Z,20.40
2018-09-27T08:48:08.863Z,20.60
2018-09-27T08:50:44.475Z,21.10
2018-09-27T08:53:20.415Z,21.40
2018-09-27T08:55:55.882Z,21.60
2018-09-27T08:58:31.092Z,21.80
2018-09-27T09:01:05.411Z,22.00
2018-09-27T09:03:40.851Z,22.20
2018-09-27T09:06:15.351Z,22.00
2018-09-27T09:08:51.246Z,21.70
2018-09-27T09:11:26.630Z,21.70
2018-09-27T09:14:01.780Z,21.10
2018-09-27T09:16:36.272Z,21.60
2018-09-27T09:19:11.069Z,21.20
2018-09-27T09:21:45.845Z,21.60
2018-09-27T09:24:20.730Z,21.90
2018-09-27T09:26:59.843Z,22.20
2018-09-27T09:29:34.915Z,22.60
2018-09-27T09:32:10.345Z,22.70
2018-09-27T09:34:45.497Z,22.70
2018-09-27T09:37:19.939Z,22.40
2018-09-27T09:39:55.480Z,22.30
2018-09-27T09:42:31.207Z,22.40
2018-09-27T09:45:06.299Z,22.40
2018-09-27T09:47:40.735Z,22.10
2018-09-27T09:50:15.318Z,22.30
2018-09-27T09:52:49.942Z,22.50
2018-09-27T09:55:25.119Z,22.30
2018-09-27T09:58:00.530Z,22.30
2018-09-27T10:00:37.025Z,22.40
2018-09-27T10:03:12.573Z,22.40
2018-09-27T10:05:47.984Z,21.80
2018-09-27T10:08:22.412Z,21.40
2018-09-27T10:10:57.003Z,21.70
2018-09-27T10:13:32.406Z,21.70
2018-09-27T10:16:07.408Z,21.70
2018-09-27T10:18:42.336Z,22.00
2018-09-27T10:21:16.830Z,21.90
2018-09-27T10:23:51.780Z,21.60
2018-09-27T10:26:27.075Z,20.90
2018-09-27T10:29:02.455Z,20.50
2018-09-27T10:31:37.872Z,20.80
2018-09-27T10:34:12.362Z,21.10
2018-09-27T10:36:46.913Z,21.00
2018-09-27T10:39:22.162Z,21.30
2018-09-27T10:41:58.830Z,21.90
2018-09-27T10:44:34.467Z,22.40
2018-09-27T10:47:08.715Z,22.70
2018-09-27T10:49:43.217Z,22.80
2018-09-27T10:52:17.563Z,22.90
2018-09-27T10:54:52.777Z,22.90
2018-09-27T10:57:28.215Z,21.90
2018-09-27T11:00:02.773Z,21.70
2018-09-27T11:02:37.557Z,22.10
2018-09-27T11:05:12.912Z,21.50
2018-09-27T11:07:47.384Z,22.20
2018-09-27T11:36:12.815Z,22.90
2018-09-27T11:43:56.868Z,25.70
2018-09-27T11:49:06.839Z,26.80
2018-09-27T11:51:41.167Z,26.20
2018-09-27T11:54:22.676Z,26.70
2018-09-27T12:02:13.832Z,27.00
2018-09-27T12:04:48.795Z,26.00
2018-09-27T12:07:23.197Z,26.30
2018-09-27T12:09:57.506Z,26.50
2018-09-27T12:12:32.455Z,25.70
2018-09-27T12:15:07.924Z,25.30
2018-09-27T12:17:42.348Z,25.80
2018-09-27T12:20:17.862Z,25.90
2018-09-27T12:22:52.268Z,26.20
2018-09-27T12:25:26.608Z,26.40
2018-09-27T12:28:07.606Z,26.00
2018-09-27T12:30:42.523Z,25.60
2018-09-27T12:33:17.004Z,25.70
2018-09-27T12:35:51.485Z,25.80
2018-09-27T12:38:27.095Z,25.90
2018-09-27T12:41:02.388Z,25.50
2018-09-27T12:43:37.443Z,25.60
2018-09-27T12:46:12.561Z,25.50
2018-09-27T12:48:47.143Z,25.50
2018-09-27T12:51:21.453Z,25.80
2018-09-27T12:53:55.611Z,25.90
2018-09-27T12:56:30.720Z,26.00
2018-09-27T12:59:06.271Z,25.90
2018-09-27T13:01:41.209Z,26.00
2018-09-27T13:04:16.278Z,25.50
2018-09-27T13:06:52.153Z,25.30
2018-09-27T13:09:26.932Z,25.10
2018-09-27T13:12:03.846Z,24.60
2018-09-27T13:14:38.451Z,25.00
2018-09-27T13:17:12.787Z,25.40
2018-09-27T13:19:48.237Z,25.90
2018-09-27T13:22:22.731Z,26.30
2018-09-27T13:24:57.592Z,26.50
2018-09-27T13:30:15.065Z,26.80
2018-09-27T13:32:49.749Z,27.80
2018-09-27T13:35:24.598Z,28.20
2018-09-27T13:38:00.044Z,28.50
2018-09-27T13:40:36.176Z,28.90
2018-09-27T13:43:12.317Z,29.10
2018-09-27T13:45:47.301Z,28.60
2018-09-27T13:48:21.802Z,28.40
2018-09-27T13:53:32.475Z,29.60
2018-09-27T13:56:08.949Z,29.70
2018-09-27T13:58:44.274Z,29.70
2018-09-27T14:01:19.675Z,29.50
2018-09-27T14:03:54.901Z,29.40
2018-09-27T14:06:29.614Z,29.40
2018-09-27T14:09:06.392Z,29.00
2018-09-27T14:11:41.947Z,28.90
2018-09-27T14:14:17.148Z,28.60
2018-09-27T14:16:52.669Z,28.50
2018-09-27T14:19:27.231Z,28.60
2018-09-27T14:22:01.998Z,28.50
2018-09-27T14:24:36.601Z,28.40
2018-09-27T14:27:12.207Z,28.30
2018-09-27T14:29:48.416Z,28.20
2018-09-27T14:32:26.196Z,27.60
2018-09-27T14:35:01.516Z,27.70
2018-09-27T14:37:42.240Z,28.00
2018-09-27T14:40:17.710Z,28.00
2018-09-27T14:42:54.719Z,28.00
2018-09-27T14:45:29.992Z,27.70
2018-09-27T14:48:04.590Z,27.40
2018-09-27T14:50:39.742Z,27.30
2018-09-27T14:53:15.220Z,27.10
2018-09-27T14:55:50.521Z,27.70
2018-09-27T14:58:25.901Z,28.00
2018-09-27T15:01:01.283Z,28.40
2018-09-27T15:03:36.972Z,27.80
2018-09-27T15:06:11.682Z,27.80
2018-09-27T15:08:46.719Z,28.10
2018-09-27T15:11:21.855Z,28.30
2018-09-27T15:13:56.878Z,28.70
2018-09-27T15:16:31.915Z,29.30
2018-09-27T15:19:07.111Z,30.00
2018-09-27T15:21:43.608Z,29.80
2018-09-27T15:24:17.973Z,30.60
2018-09-27T15:26:54.808Z,31.60
2018-09-27T15:29:32.228Z,32.40
2018-09-27T15:32:08.487Z,32.40
2018-09-27T15:34:43.196Z,33.10
2018-09-27T15:37:18.311Z,33.90
2018-09-27T15:39:53.336Z,34.80
2018-09-27T15:42:29.210Z,34.90
2018-09-27T15:45:04.371Z,35.30
2018-09-27T15:47:39.039Z,35.70
2018-09-27T15:50:14.011Z,35.80
2018-09-27T15:52:48.321Z,35.60
2018-09-27T15:55:23.531Z,34.70
2018-09-27T15:57:58.768Z,34.80
2018-09-27T16:00:33.118Z,34.60
2018-09-27T16:03:08.268Z,34.60
2018-09-27T16:05:42.830Z,34.50
2018-09-27T16:08:17.577Z,34.20
2018-09-27T16:10:52.743Z,33.70
2018-09-27T16:13:27.870Z,32.80
2018-09-27T16:16:03.164Z,32.40
2018-09-27T16:18:37.707Z,32.00
2018-09-27T16:21:12.234Z,31.80
2018-09-27T16:23:46.736Z,31.40
2018-09-27T16:26:22.108Z,31.10
2018-09-27T16:28:57.279Z,30.50
2018-09-27T16:31:32.415Z,30.00
2018-09-27T16:34:06.867Z,29.60
2018-09-27T16:36:41.271Z,29.40
2018-09-27T16:39:16.563Z,29.20
2018-09-27T16:41:59.792Z,28.90
2018-09-27T16:44:35.040Z,28.60
2018-09-27T16:47:11.038Z,28.20
2018-09-27T16:49:45.477Z,27.60
2018-09-27T16:52:24.273Z,27.20
2018-09-27T16:54:59.382Z,26.90
2018-09-27T16:57:34.620Z,26.40
2018-09-27T17:00:08.923Z,26.20
2018-09-27T17:02:44.008Z,25.90
2018-09-27T17:05:18.903Z,25.50
2018-09-27T17:07:54.263Z,25.60
2018-09-27T17:10:29.007Z,25.60
2018-09-27T17:13:04.277Z,25.60
2018-09-27T17:15:38.673Z,25.60
2018-09-27T17:18:13.100Z,25.60
2018-09-27T17:20:47.395Z,25.40
2018-09-27T17:23:21.943Z,25.30
2018-09-27T17:25:56.399Z,25.10
2018-09-27T17:28:31.400Z,25.00
2018-09-27T17:31:06.351Z,24.80
2018-09-27T17:33:41.616Z,24.80
2018-09-27T17:36:16.036Z,24.70
2018-09-27T17:38:51.236Z,24.60
2018-09-27T17:41:26.143Z,24.50
2018-09-27T17:44:01.079Z,24.40
2018-09-27T17:46:40.699Z,24.20
2018-09-27T17:49:15.132Z,24.10
2018-09-27T17:51:50.795Z,23.90
2018-09-27T17:54:25.967Z,23.70
2018-09-27T17:57:00.407Z,23.40
2018-09-27T17:59:36.087Z,23.30
2018-09-27T18:02:10.441Z,23.30
2018-09-27T18:04:45.616Z,23.10
2018-09-27T18:07:20.842Z,23.10
2018-09-27T18:09:56.352Z,23.20
2018-09-27T18:12:31.600Z,23.10
2018-09-27T18:15:05.945Z,22.80
2018-09-27T18:17:40.570Z,22.80
2018-09-27T18:20:15.016Z,22.60
2018-09-27T18:22:49.533Z,22.50
2018-09-27T18:25:24.672Z,22.50
2018-09-27T18:27:59.380Z,22.60
2018-09-27T18:30:34.534Z,22.60
2018-09-27T18:33:09.671Z,22.50
2018-09-27T18:35:44.032Z,22.40
2018-09-27T18:38:19.399Z,22.30
2018-09-27T18:40:54.935Z,22.20
2018-09-27T18:43:29.825Z,22.00
2018-09-27T18:46:05.508Z,22.00
2018-09-27T18:48:39.773Z,21.80
2018-09-27T18:51:14.101Z,21.80
2018-09-27T18:53:49.490Z,21.70
2018-09-27T18:56:25.394Z,21.70
2018-09-27T18:59:00.620Z,21.70
2018-09-27T19:01:35.147Z,21.70
2018-09-27T19:04:10.651Z,21.50
2018-09-27T19:06:45.018Z,21.40
2018-09-27T19:09:19.474Z,21.40
2018-09-27T19:11:53.824Z,21.40
2018-09-27T19:14:29.459Z,21.30
2018-09-27T19:17:04.012Z,21.30
2018-09-27T19:19:38.598Z,21.20
2018-09-27T19:22:13.227Z,21.10
2018-09-27T19:24:56.407Z,21.10
2018-09-27T19:27:30.842Z,21.10
2018-09-27T19:30:05.293Z,20.90
2018-09-27T19:32:40.591Z,20.90
2018-09-27T19:35:15.111Z,20.90
2018-09-27T19:37:50.421Z,20.80
2018-09-27T19:40:25.587Z,20.80
2018-09-27T19:43:00.967Z,20.70
2018-09-27T19:47:56.383Z,20.70
2018-09-27T19:50:32.155Z,20.80
2018-09-27T19:53:06.641Z,20.60
2018-09-27T19:55:41.692Z,20.50
2018-09-27T19:58:16.737Z,20.50
2018-09-27T20:00:54.280Z,20.40
2018-09-27T20:03:31.420Z,20.30
2018-09-27T20:06:05.775Z,20.20
2018-09-27T20:08:40.099Z,20.20
2018-09-27T20:11:14.491Z,20.10
2018-09-27T20:13:49.625Z,20.10
2018-09-27T20:16:24.235Z,20.00
2018-09-27T20:18:58.361Z,20.00
2018-09-27T20:21:32.703Z,20.00
2018-09-27T20:24:07.216Z,19.90
2018-09-27T20:26:42.203Z,19.90
2018-09-27T20:29:16.514Z,19.70
2018-09-27T20:31:51.629Z,19.70
2018-09-27T20:34:26.131Z,19.60
2018-09-27T20:37:00.997Z,19.50
2018-09-27T20:39:36.037Z,19.50
2018-09-27T20:42:11.594Z,19.50
2018-09-27T20:44:46.705Z,19.50
2018-09-27T20:47:21.173Z,19.50
2018-09-27T20:49:55.952Z,19.40
2018-09-27T20:52:31.915Z,19.30
2018-09-27T20:55:06.839Z,19.20
2018-09-27T20:57:41.959Z,19.20
2018-09-27T21:00:17.399Z,19.20
2018-09-27T21:03:00.170Z,19.10
2018-09-27T21:05:34.663Z,19.10
2018-09-27T21:08:09.523Z,19.00
2018-09-27T21:10:44.264Z,19.00
2018-09-27T21:13:19.317Z,18.90
2018-09-27T21:15:53.723Z,18.80
2018-09-27T21:18:28.169Z,18.80
2018-09-27T21:21:04.451Z,18.80
2018-09-27T21:23:38.719Z,18.60
2018-09-27T21:26:13.708Z,18.60
2018-09-27T21:28:47.976Z,18.60
2018-09-27T21:31:30.323Z,18.50
2018-09-27T21:34:04.847Z,18.40
2018-09-27T21:36:39.239Z,18.40
2018-09-27T21:39:14.372Z,18.30
2018-09-27T21:41:49.160Z,18.30
2018-09-27T21:44:24.346Z,18.20
2018-09-27T21:46:58.850Z,18.20
2018-09-27T21:49:33.980Z,18.20
2018-09-27T21:52:08.475Z,18.20
2018-09-27T21:54:43.703Z,18.20
2018-09-27T21:57:18.883Z,18.10
2018-09-27T21:59:53.287Z,18.00
2018-09-27T22:02:28.556Z,18.00
2018-09-27T22:05:03.742Z,17.90
2018-09-27T22:07:38.279Z,17.90
2018-09-27T22:10:12.661Z,17.90
2018-09-27T22:12:47.534Z,17.80
2018-09-27T22:15:22.900Z,17.80
2018-09-27T22:17:57.491Z,17.70
2018-09-27T22:20:31.826Z,17.70
2018-09-27T22:23:06.239Z,17.60
2018-09-27T22:25:42.030Z,17.50
2018-09-27T22:28:16.552Z,17.50
2018-09-27T22:30:51.681Z,17.40
2018-09-27T22:33:26.915Z,17.40
2018-09-27T22:36:01.251Z,17.30
2018-09-27T22:38:36.387Z,17.30
2018-09-27T22:41:10.675Z,17.20
2018-09-27T22:43:45.943Z,17.10
2018-09-27T22:46:21.073Z,17.10
2018-09-27T22:48:56.563Z,17.00
2018-09-27T22:51:30.817Z,17.00
2018-09-27T22:54:06.070Z,17.00
2018-09-27T22:56:40.511Z,16.90
2018-09-27T22:59:15.384Z,17.00
2018-09-27T23:01:50.464Z,16.90
2018-09-27T23:04:25.700Z,16.90
2018-09-27T23:07:00.063Z,16.80
2018-09-27T23:09:34.472Z,16.80
2018-09-27T23:12:09.635Z,16.70
2018-09-27T23:14:43.973Z,16.60
2018-09-27T23:17:18.759Z,16.70
2018-09-27T23:19:53.108Z,16.60
2018-09-27T23:22:27.416Z,16.70
2018-09-27T23:25:02.063Z,16.70
2018-09-27T23:27:36.914Z,16.60
2018-09-27T23:32:52.034Z,16.50
2018-09-27T23:35:26.603Z,16.40
2018-09-27T23:38:02.005Z,16.40
2018-09-27T23:40:37.056Z,16.40
2018-09-27T23:43:11.863Z,16.40
2018-09-27T23:45:47.291Z,16.40
2018-09-27T23:48:22.344Z,16.40
2018-09-27T23:51:03.682Z,16.40
2018-09-27T23:53:38.570Z,16.30
2018-09-27T23:56:13.111Z,16.30
2018-09-27T23:58:47.995Z,16.30
